Time;durP1;ratioP1;P1;durP2;ratioP2;P2;SDS_P1;SDS_P2;PMS_P1;PMS_P2;Temp;Humidity;BMP_temperature;BMP_pressure;BME280_temperature;BME280_humidity;BME280_pressure;Samples;Min_cycle;Max_cycle;Signal;HPM_P1;HPM_P2
2024/03/25 00:01:46;;;;;;;3.42;2.35;;;5.50;99.90;;;;;;4970064;28;20023;-75
2024/03/25 00:04:20;;;;;;;5.90;3.15;;;5.40;99.90;;;;;;4970722;28;20482;-75
2024/03/25 00:06:46;;;;;;;5.60;2.33;;;5.40;99.90;;;;;;4969760;28;20098;-75
2024/03/25 00:09:14;;;;;;;3.92;2.22;;;5.40;99.90;;;;;;4952283;28;20110;-75
2024/03/25 00:11:41;;;;;;;6.15;2.65;;;5.40;99.90;;;;;;4952056;28;20035;-75
2024/03/25 00:14:10;;;;;;;9.15;3.10;;;5.40;99.90;;;;;;4952584;28;20027;-75
2024/03/25 00:16:38;;;;;;;5.50;3.15;;;5.40;99.90;;;;;;4950974;28;20027;-75
2024/03/25 00:19:03;;;;;;;7.47;2.83;;;5.40;99.90;;;;;;4952643;28;20031;-75
2024/03/25 00:21:32;;;;;;;8.10;3.33;;;5.40;99.90;;;;;;4952562;28;20395;-75
2024/03/25 00:24:00;;;;;;;10.35;3.10;;;5.30;99.90;;;;;;4951878;28;20086;-75
2024/03/25 00:26:26;;;;;;;8.80;3.13;;;5.30;99.90;;;;;;4951053;28;20026;-75
2024/03/25 00:28:55;;;;;;;7.70;3.80;;;5.30;99.90;;;;;;4986057;28;20389;-75
2024/03/25 00:31:23;;;;;;;13.10;3.55;;;5.30;99.90;;;;;;4963434;28;20077;-75
2024/03/25 00:33:49;;;;;;;11.05;4.07;;;5.30;99.90;;;;;;4967168;28;20042;-75
2024/03/25 00:36:18;;;;;;;8.00;2.83;;;5.20;99.90;;;;;;4952122;28;20027;-75
2024/03/25 00:38:46;;;;;;;16.38;3.80;;;5.20;99.90;;;;;;4952307;28;20494;-75
2024/03/25 00:41:12;;;;;;;10.07;3.15;;;5.20;99.90;;;;;;4952073;28;20064;-75
2024/03/25 00:43:38;;;;;;;14.10;3.58;;;5.20;99.90;;;;;;4952784;28;20028;-75
2024/03/25 00:46:07;;;;;;;7.13;3.03;;;5.20;99.90;;;;;;4973592;28;20023;-75
2024/03/25 00:48:35;;;;;;;8.98;3.00;;;5.10;99.90;;;;;;4951989;28;20031;-76
2024/03/25 00:51:03;;;;;;;11.95;2.78;;;5.10;99.90;;;;;;4959588;28;20027;-76
2024/03/25 00:53:32;;;;;;;8.40;3.08;;;5.10;99.90;;;;;;4959795;28;20019;-76
2024/03/25 00:55:57;;;;;;;7.72;2.63;;;5.10;99.90;;;;;;4958578;28;20421;-75
2024/03/25 00:58:25;;;;;;;4.93;2.83;;;5.10;99.90;;;;;;4950695;28;20110;-75
2024/03/25 01:00:51;;;;;;;5.78;3.22;;;5.10;99.90;;;;;;4950545;28;20517;-76
2024/03/25 01:03:17;;;;;;;7.47;2.95;;;5.10;99.90;;;;;;4951371;28;20019;-76
2024/03/25 01:05:43;;;;;;;8.55;4.30;;;5.10;99.90;;;;;;4950681;28;20027;-76
2024/03/25 01:08:13;;;;;;;11.48;3.47;;;5.10;99.90;;;;;;4950581;28;20537;-75
2024/03/25 01:10:39;;;;;;;10.05;3.45;;;5.10;99.90;;;;;;4952059;28;20070;-75
2024/03/25 01:13:05;;;;;;;10.73;3.15;;;5.10;99.90;;;;;;4950203;28;20067;-76
2024/03/25 01:15:34;;;;;;;9.93;4.13;;;5.10;99.90;;;;;;4967702;28;20015;-76
2024/03/25 01:18:00;;;;;;;7.35;2.67;;;5.00;99.90;;;;;;4969746;28;20035;-76
2024/03/25 01:20:25;;;;;;;11.68;2.85;;;5.00;99.90;;;;;;4969636;28;20118;-76
2024/03/25 01:22:51;;;;;;;8.65;2.63;;;5.10;99.90;;;;;;4969126;28;20019;-75
2024/03/25 01:25:16;;;;;;;6.38;2.80;;;5.10;99.90;;;;;;4971123;28;20113;-75
2024/03/25 01:27:45;;;;;;;8.48;3.10;;;5.10;99.90;;;;;;4976493;28;20124;-75
2024/03/25 01:30:11;;;;;;;9.07;2.72;;;5.10;99.90;;;;;;4950445;28;20471;-76
2024/03/25 01:32:37;;;;;;;10.63;2.78;;;5.10;99.90;;;;;;4949936;28;20036;-75
2024/03/25 01:35:03;;;;;;;9.30;3.22;;;5.10;99.90;;;;;;4950840;28;20023;-75
2024/03/25 01:37:29;;;;;;;9.07;2.63;;;5.10;99.90;;;;;;4966442;28;20552;-76
2024/03/25 01:39:55;;;;;;;8.13;2.75;;;5.10;99.90;;;;;;4969742;28;20027;-75
2024/03/25 01:42:20;;;;;;;8.00;3.03;;;5.10;99.90;;;;;;4985391;28;20114;-75
2024/03/25 01:44:48;;;;;;;12.15;3.08;;;5.10;99.90;;;;;;4967773;28;20244;-75
2024/03/25 01:47:14;;;;;;;7.03;3.40;;;5.10;99.90;;;;;;4956789;28;20099;-75
2024/03/25 01:49:39;;;;;;;13.35;3.33;;;5.10;99.90;;;;;;4970757;28;20026;-76
2024/03/25 01:52:05;;;;;;;6.68;3.80;;;5.10;99.90;;;;;;4970222;28;20469;-75
2024/03/25 01:54:31;;;;;;;12.20;3.22;;;5.10;99.90;;;;;;4970628;28;20026;-76
2024/03/25 01:56:58;;;;;;;10.38;3.25;;;5.10;99.90;;;;;;4968586;28;20027;-75
2024/03/25 01:59:25;;;;;;;10.80;3.55;;;5.10;99.90;;;;;;4961297;28;20057;-75
2024/03/25 02:01:51;;;;;;;9.80;3.25;;;5.10;99.90;;;;;;4988546;28;20037;-76
2024/03/25 02:04:17;;;;;;;13.65;3.95;;;5.10;99.90;;;;;;4988864;28;20026;-76
2024/03/25 02:06:43;;;;;;;11.98;3.60;;;5.20;99.90;;;;;;4964708;28;20102;-75
2024/03/25 02:09:10;;;;;;;10.02;3.78;;;5.20;99.90;;;;;;4978942;28;20504;-76
2024/03/25 02:11:36;;;;;;;9.45;3.08;;;5.20;99.90;;;;;;4961132;28;20023;-75
2024/03/25 02:14:05;;;;;;;10.93;3.83;;;5.20;99.90;;;;;;4954474;28;20023;-75
2024/03/25 02:16:36;;;;;;;10.93;3.65;;;5.20;99.90;;;;;;4953395;28;20049;-76
2024/03/25 02:19:02;;;;;;;10.65;4.93;;;5.20;99.90;;;;;;4953293;28;20023;-76
2024/03/25 02:21:30;;;;;;;9.60;3.63;;;5.20;99.90;;;;;;4981058;28;20038;-76
2024/03/25 02:24:00;;;;;;;11.57;4.20;;;5.20;99.90;;;;;;4960866;28;20081;-75
2024/03/25 02:26:26;;;;;;;10.37;3.70;;;5.20;99.90;;;;;;4953269;28;20030;-75
2024/03/25 02:28:52;;;;;;;9.07;4.10;;;5.20;99.90;;;;;;4956712;28;20385;-75
2024/03/25 02:31:20;;;;;;;8.35;4.07;;;5.20;99.90;;;;;;4972861;28;20489;-74
2024/03/25 02:33:48;;;;;;;13.10;3.78;;;5.20;99.90;;;;;;4988443;28;20050;-74
2024/03/25 02:36:14;;;;;;;14.57;4.53;;;5.20;99.90;;;;;;4972628;28;20022;-74
2024/03/25 02:38:40;;;;;;;13.35;3.75;;;5.20;99.90;;;;;;4972483;28;20501;-74
2024/03/25 02:41:10;;;;;;;13.10;4.10;;;5.20;99.90;;;;;;4972400;28;20050;-75
2024/03/25 02:43:36;;;;;;;6.93;3.40;;;5.20;99.90;;;;;;4973683;28;20022;-74
2024/03/25 02:46:07;;;;;;;13.77;3.92;;;5.20;99.90;;;;;;4988769;28;20482;-75
2024/03/25 02:48:32;;;;;;;9.07;3.47;;;5.20;99.90;;;;;;4965656;28;20027;-74
2024/03/25 02:51:01;;;;;;;6.85;3.30;;;5.20;99.90;;;;;;4972489;28;20039;-75
2024/03/25 02:53:27;;;;;;;15.07;3.22;;;5.10;99.90;;;;;;4973810;28;20026;-75
2024/03/25 02:55:55;;;;;;;4.78;3.10;;;5.10;99.90;;;;;;4973451;28;20031;-75
2024/03/25 02:58:21;;;;;;;7.00;3.30;;;5.10;99.90;;;;;;4972151;28;20520;-75
2024/03/25 03:00:47;;;;;;;6.38;3.35;;;5.10;99.90;;;;;;4972014;28;20037;-75
2024/03/25 03:03:13;;;;;;;11.15;4.05;;;5.10;99.90;;;;;;4971659;28;20181;-75
2024/03/25 03:05:39;;;;;;;7.53;3.47;;;5.00;99.90;;;;;;4971751;28;20027;-75
2024/03/25 03:08:05;;;;;;;9.48;3.33;;;5.00;99.90;;;;;;4970827;28;20019;-75
2024/03/25 03:10:30;;;;;;;15.10;4.25;;;5.00;99.90;;;;;;4971848;28;20054;-75
2024/03/25 03:12:56;;;;;;;9.52;3.53;;;5.00;99.90;;;;;;4972578;28;20065;-75
2024/03/25 03:15:21;;;;;;;10.25;4.95;;;5.00;99.90;;;;;;4971555;28;20026;-76
2024/03/25 03:17:47;;;;;;;8.07;4.13;;;5.00;99.90;;;;;;4971274;28;20045;-75
2024/03/25 03:20:12;;;;;;;15.68;4.25;;;5.10;99.90;;;;;;4971288;28;20027;-75
2024/03/25 03:22:38;;;;;;;11.00;4.40;;;5.10;99.90;;;;;;4972519;28;20038;-75
2024/03/25 03:25:04;;;;;;;10.50;3.90;;;5.10;99.90;;;;;;4970511;28;20169;-75
2024/03/25 03:27:30;;;;;;;10.10;4.38;;;5.10;99.90;;;;;;4953627;28;20153;-75
2024/03/25 03:29:56;;;;;;;11.48;4.40;;;5.10;99.90;;;;;;4970304;28;20451;-76
2024/03/25 03:32:21;;;;;;;9.93;3.63;;;5.10;99.90;;;;;;4958403;28;20106;-75
2024/03/25 03:34:47;;;;;;;11.10;4.10;;;5.10;99.90;;;;;;4975659;28;20129;-76
2024/03/25 03:37:12;;;;;;;13.50;4.10;;;5.10;99.90;;;;;;4952993;28;20073;-75
2024/03/25 03:39:38;;;;;;;7.45;3.53;;;5.10;99.90;;;;;;4952803;28;20475;-75
2024/03/25 03:42:03;;;;;;;8.30;3.22;;;5.10;99.90;;;;;;4967390;28;20110;-75
2024/03/25 03:44:29;;;;;;;11.32;3.65;;;5.10;99.90;;;;;;4952473;28;20058;-75
2024/03/25 03:46:54;;;;;;;8.00;3.35;;;5.10;99.90;;;;;;4952939;28;20078;-76
2024/03/25 03:49:20;;;;;;;8.90;3.33;;;5.10;99.90;;;;;;4967596;28;20023;-75
2024/03/25 03:51:45;;;;;;;9.55;3.20;;;5.10;99.90;;;;;;4966952;28;20040;-76
2024/03/25 03:54:11;;;;;;;9.80;3.92;;;5.10;99.90;;;;;;4967371;28;20386;-75
2024/03/25 03:56:36;;;;;;;9.63;3.38;;;5.10;99.90;;;;;;4952908;28;20082;-75
2024/03/25 03:59:02;;;;;;;8.25;4.07;;;5.20;99.90;;;;;;4967309;28;20109;-75
2024/03/25 04:01:28;;;;;;;8.45;3.70;;;5.20;99.90;;;;;;4981620;28;20383;-75
2024/03/25 04:03:54;;;;;;;7.32;3.38;;;5.20;99.90;;;;;;4970280;28;20023;-75
2024/03/25 04:06:19;;;;;;;10.85;3.72;;;5.20;99.90;;;;;;4972010;28;20466;-76
2024/03/25 04:08:45;;;;;;;10.15;3.92;;;5.20;99.90;;;;;;4971859;28;20069;-76
2024/03/25 04:11:18;;;;;;;9.40;3.90;;;5.20;99.90;;;;;;4970520;28;20023;-76
2024/03/25 04:13:46;;;;;;;11.93;4.43;;;5.20;99.90;;;;;;4971371;28;20044;-75
2024/03/25 04:16:12;;;;;;;8.52;4.18;;;5.20;99.90;;;;;;4970280;28;20022;-75
2024/03/25 04:18:38;;;;;;;14.60;3.97;;;5.20;99.90;;;;;;4959272;28;20027;-76
2024/03/25 04:21:12;;;;;;;11.73;4.78;;;5.20;99.90;;;;;;4951104;28;20337;-76
2024/03/25 04:23:40;;;;;;;14.13;5.03;;;5.20;99.90;;;;;;4950955;28;20474;-76
2024/03/25 04:26:08;;;;;;;7.45;4.00;;;5.20;99.90;;;;;;4967073;28;20027;-75
2024/03/25 04:28:41;;;;;;;7.55;4.22;;;5.20;99.90;;;;;;4950898;28;20078;-76
2024/03/25 04:31:08;;;;;;;10.90;4.15;;;5.20;99.90;;;;;;4952270;28;20019;-75
2024/03/25 04:33:36;;;;;;;15.93;5.30;;;5.20;99.90;;;;;;4978210;28;20419;-75
2024/03/25 04:36:01;;;;;;;10.05;4.65;;;5.20;99.90;;;;;;4952325;28;20104;-76
2024/03/25 04:38:30;;;;;;;7.38;4.05;;;5.20;99.90;;;;;;4950960;28;20171;-75
2024/03/25 04:40:58;;;;;;;9.57;4.57;;;5.20;99.90;;;;;;4952236;28;20166;-75
2024/03/25 04:43:24;;;;;;;9.32;4.20;;;5.20;99.90;;;;;;4972493;28;20016;-76
2024/03/25 04:45:50;;;;;;;16.50;5.50;;;5.20;99.90;;;;;;4951573;28;20023;-75
2024/03/25 04:48:19;;;;;;;7.28;4.55;;;5.20;99.90;;;;;;4982295;28;20023;-75
2024/03/25 04:50:45;;;;;;;9.88;4.28;;;5.30;99.90;;;;;;4966839;28;20059;-75
2024/03/25 04:53:10;;;;;;;12.90;4.95;;;5.30;99.90;;;;;;4951630;28;20034;-75
2024/03/25 04:55:36;;;;;;;14.20;4.75;;;5.30;99.90;;;;;;4966550;28;20026;-75
2024/03/25 04:58:02;;;;;;;11.88;4.85;;;5.30;99.90;;;;;;4971356;28;20027;-76
2024/03/25 05:00:28;;;;;;;11.10;4.55;;;5.30;99.90;;;;;;4969822;28;20027;-75
2024/03/25 05:02:53;;;;;;;14.38;5.07;;;5.20;99.90;;;;;;4970540;28;20034;-75
2024/03/25 05:05:19;;;;;;;11.43;5.30;;;5.30;99.90;;;;;;4969811;28;20027;-75
2024/03/25 05:07:44;;;;;;;13.52;5.20;;;5.30;99.90;;;;;;4986114;28;20023;-75
2024/03/25 05:10:10;;;;;;;17.15;5.55;;;5.30;99.90;;;;;;4969696;28;20029;-75
2024/03/25 05:12:36;;;;;;;10.50;4.95;;;5.30;99.90;;;;;;4969354;28;20057;-75
2024/03/25 05:15:01;;;;;;;9.52;4.38;;;5.30;99.90;;;;;;4969232;28;20022;-75
2024/03/25 05:17:27;;;;;;;9.90;4.72;;;5.30;99.90;;;;;;4964907;28;20038;-75
2024/03/25 05:19:53;;;;;;;10.80;5.07;;;5.30;99.90;;;;;;4982515;28;20130;-75
2024/03/25 05:22:18;;;;;;;13.60;5.18;;;5.30;99.90;;;;;;4951407;28;20027;-76
2024/03/25 05:24:44;;;;;;;9.35;4.50;;;5.20;99.90;;;;;;4950343;28;20118;-75
2024/03/25 05:27:10;;;;;;;16.08;5.57;;;5.20;99.90;;;;;;4970579;28;20015;-76
2024/03/25 05:29:35;;;;;;;11.18;4.78;;;5.20;99.90;;;;;;4985912;28;20022;-75
2024/03/25 05:32:01;;;;;;;17.02;4.82;;;5.20;99.90;;;;;;4973091;28;20031;-75
2024/03/25 05:34:28;;;;;;;10.23;4.57;;;5.20;99.90;;;;;;4974951;28;20270;-75
2024/03/25 05:36:54;;;;;;;9.50;4.05;;;5.20;99.90;;;;;;4974505;28;20494;-75
2024/03/25 05:39:20;;;;;;;7.75;3.65;;;5.20;99.90;;;;;;4974433;28;20023;-75
2024/03/25 05:41:46;;;;;;;8.25;3.55;;;5.20;99.90;;;;;;4974138;28;20029;-75
2024/03/25 05:44:12;;;;;;;8.90;3.80;;;5.20;99.90;;;;;;4974282;28;20023;-75
2024/03/25 05:46:39;;;;;;;9.18;4.22;;;5.20;99.90;;;;;;4973021;28;20031;-75
2024/03/25 05:49:05;;;;;;;16.67;3.92;;;5.20;99.90;;;;;;4973132;28;20054;-75
2024/03/25 05:51:33;;;;;;;8.40;3.70;;;5.20;99.90;;;;;;4974277;28;20081;-75
2024/03/25 05:53:58;;;;;;;11.13;3.33;;;5.30;99.90;;;;;;4963160;28;20122;-75
2024/03/25 05:56:30;;;;;;;12.63;3.90;;;5.30;99.90;;;;;;4954897;28;20094;-76
2024/03/25 05:58:58;;;;;;;11.70;3.78;;;5.30;99.90;;;;;;4963635;28;20019;-75
2024/03/25 06:01:23;;;;;;;14.52;4.25;;;5.30;99.90;;;;;;4973760;28;20472;-75
2024/03/25 06:03:49;;;;;;;7.70;3.58;;;5.30;99.90;;;;;;4972573;28;20114;-75
2024/03/25 06:06:15;;;;;;;8.95;3.75;;;5.40;99.90;;;;;;4972720;28;20105;-75
2024/03/25 06:08:43;;;;;;;8.00;3.92;;;5.40;99.90;;;;;;4974029;28;20027;-75
2024/03/25 06:11:09;;;;;;;15.40;3.92;;;5.40;99.90;;;;;;4974022;28;20098;-76
2024/03/25 06:13:35;;;;;;;8.60;3.88;;;5.40;99.90;;;;;;4972311;28;20030;-75
2024/03/25 06:16:06;;;;;;;10.13;3.60;;;5.40;99.90;;;;;;4966687;28;20033;-75
2024/03/25 06:18:34;;;;;;;10.50;3.42;;;5.40;99.90;;;;;;4973963;28;20066;-76
2024/03/25 06:21:00;;;;;;;13.27;4.47;;;5.50;99.90;;;;;;4972557;28;20034;-75
2024/03/25 06:23:29;;;;;;;12.02;4.05;;;5.60;99.90;;;;;;4988388;28;20470;-75
2024/03/25 06:25:57;;;;;;;9.63;4.63;;;5.60;99.90;;;;;;4973717;28;20486;-75
2024/03/25 06:28:23;;;;;;;8.88;3.53;;;5.70;99.90;;;;;;4972591;28;20457;-75
2024/03/25 06:36:22;;;;;;;9.25;3.35;;;5.80;99.90;;;;;;4974017;28;20086;-75
2024/03/25 06:38:48;;;;;;;14.32;3.60;;;5.80;99.90;;;;;;4973616;28;20039;-75
2024/03/25 06:41:14;;;;;;;15.75;4.32;;;5.80;99.90;;;;;;4973344;28;20099;-75
2024/03/25 06:43:45;;;;;;;10.32;4.03;;;5.90;99.90;;;;;;4981780;28;20462;-75
2024/03/25 06:46:14;;;;;;;13.30;3.72;;;5.90;99.90;;;;;;4968935;28;20027;-75
2024/03/25 06:48:40;;;;;;;10.40;3.95;;;6.00;99.90;;;;;;4952790;28;20031;-75
2024/03/25 06:51:06;;;;;;;12.07;3.72;;;6.00;99.90;;;;;;4954036;28;20034;-76
2024/03/25 06:53:32;;;;;;;7.85;3.80;;;6.10;99.90;;;;;;4957371;28;20474;-75
2024/03/25 06:56:01;;;;;;;13.82;4.78;;;6.10;99.90;;;;;;4973204;28;20509;-75
2024/03/25 06:58:28;;;;;;;13.48;4.07;;;6.10;99.90;;;;;;4973464;28;20508;-75
2024/03/25 07:00:54;;;;;;;10.10;4.40;;;6.10;99.90;;;;;;4971855;28;20501;-76
2024/03/25 07:03:22;;;;;;;10.77;4.45;;;6.10;99.90;;;;;;4971424;28;20027;-76
2024/03/25 07:05:48;;;;;;;12.30;4.22;;;6.20;99.90;;;;;;4973650;28;20263;-75
2024/03/25 07:08:14;;;;;;;13.32;4.13;;;6.40;99.90;;;;;;4970365;28;20019;-76
2024/03/25 07:10:44;;;;;;;14.05;4.30;;;6.50;99.90;;;;;;4953670;28;20055;-76
2024/03/25 07:13:09;;;;;;;11.60;3.97;;;6.70;99.90;;;;;;4953135;28;20031;-76
2024/03/25 07:15:35;;;;;;;12.38;4.30;;;6.80;99.90;;;;;;4952790;28;20081;-76
2024/03/25 07:18:01;;;;;;;12.27;4.72;;;6.80;99.90;;;;;;4952127;28;20063;-76
2024/03/25 07:20:27;;;;;;;19.25;4.57;;;6.90;99.90;;;;;;4951976;28;20031;-75
2024/03/25 07:22:57;;;;;;;7.60;3.92;;;7.00;99.90;;;;;;4953096;28;20023;-76
2024/03/25 07:25:24;;;;;;;16.40;4.60;;;7.00;99.90;;;;;;4963915;28;20500;-75
2024/03/25 07:27:50;;;;;;;10.68;3.53;;;7.10;99.90;;;;;;4964168;28;20027;-76
2024/03/25 07:30:24;;;;;;;8.75;3.85;;;7.00;99.90;;;;;;4952283;28;20341;-76
2024/03/25 07:32:50;;;;;;;14.95;4.68;;;7.10;99.90;;;;;;4953144;28;20394;-76
2024/03/25 07:35:16;;;;;;;10.05;3.83;;;7.00;99.90;;;;;;4983595;28;20031;-75
2024/03/25 07:37:44;;;;;;;12.93;4.35;;;6.90;99.90;;;;;;4951963;28;20024;-75
2024/03/25 07:40:13;;;;;;;15.43;5.78;;;6.80;99.90;;;;;;4951856;28;20035;-75
2024/03/25 07:42:39;;;;;;;11.15;3.85;;;6.70;99.90;;;;;;4952776;28;20379;-75
2024/03/25 07:45:08;;;;;;;11.77;3.78;;;6.60;99.90;;;;;;4966716;28;20119;-76
2024/03/25 07:47:34;;;;;;;13.25;3.70;;;6.60;99.90;;;;;;4972257;28;20531;-76
2024/03/25 07:50:02;;;;;;;10.70;3.35;;;6.50;99.90;;;;;;4972342;28;20101;-75
2024/03/25 07:52:31;;;;;;;12.02;3.45;;;6.50;99.90;;;;;;4986701;28;20023;-76
2024/03/25 07:54:57;;;;;;;15.10;3.83;;;6.50;99.90;;;;;;4971677;28;20394;-75
2024/03/25 07:57:26;;;;;;;10.68;4.40;;;6.50;99.90;;;;;;4967406;28;20027;-76
2024/03/25 07:59:51;;;;;;;13.65;5.30;;;6.50;99.90;;;;;;4979629;28;20375;-76
2024/03/25 08:02:21;;;;;;;14.18;4.78;;;6.50;99.90;;;;;;4952442;28;20031;-76
2024/03/25 08:04:46;;;;;;;13.75;4.15;;;6.60;99.90;;;;;;4951650;28;20030;-76
2024/03/25 08:07:15;;;;;;;18.20;3.88;;;6.60;99.90;;;;;;4952954;28;20024;-76
2024/03/25 08:09:43;;;;;;;10.65;4.28;;;6.80;99.90;;;;;;4958307;28;20456;-75
2024/03/25 08:12:09;;;;;;;13.63;4.28;;;6.80;99.90;;;;;;4970043;28;20030;-75
2024/03/25 08:14:37;;;;;;;15.95;4.43;;;6.80;99.90;;;;;;4971919;28;20029;-75
2024/03/25 08:17:06;;;;;;;14.40;5.03;;;6.70;99.90;;;;;;4961992;28;20037;-76
2024/03/25 08:19:31;;;;;;;15.73;4.65;;;6.70;99.90;;;;;;4976513;28;20027;-75
2024/03/25 08:22:00;;;;;;;19.65;5.68;;;6.70;99.90;;;;;;4975069;28;20393;-76
2024/03/25 08:24:26;;;;;;;15.40;5.05;;;6.70;99.90;;;;;;4978843;28;20046;-76
2024/03/25 08:26:54;;;;;;;16.15;4.55;;;6.80;99.90;;;;;;4964821;28;20113;-76
2024/03/25 08:29:25;;;;;;;12.02;4.85;;;6.80;99.90;;;;;;4986401;28;20026;-75
2024/03/25 08:31:51;;;;;;;11.93;3.75;;;6.90;99.90;;;;;;4971625;28;20508;-76
2024/03/25 08:34:16;;;;;;;22.45;5.07;;;7.00;99.90;;;;;;4968179;28;20121;-75
2024/03/25 08:36:45;;;;;;;14.63;4.25;;;7.10;99.90;;;;;;4952410;28;20051;-76
2024/03/25 08:39:13;;;;;;;18.38;4.82;;;7.30;99.90;;;;;;4981433;28;20027;-76
2024/03/25 08:41:39;;;;;;;12.57;3.63;;;7.50;99.90;;;;;;4950813;28;20557;-75
2024/03/25 08:44:07;;;;;;;21.60;4.20;;;7.80;99.90;;;;;;4964649;28;20110;-75
2024/03/25 08:46:33;;;;;;;21.15;5.18;;;7.90;99.90;;;;;;4959449;28;20063;-75
2024/03/25 08:49:02;;;;;;;14.98;4.57;;;8.00;99.90;;;;;;4950961;28;20038;-76
2024/03/25 08:51:31;;;;;;;14.27;3.90;;;8.20;99.90;;;;;;4955696;28;20034;-76
2024/03/25 08:53:56;;;;;;;8.93;3.75;;;8.40;99.90;;;;;;4978007;28;20110;-76
2024/03/25 08:56:25;;;;;;;18.25;4.28;;;8.70;99.90;;;;;;4971399;28;20106;-76
2024/03/25 08:58:54;;;;;;;12.45;3.25;;;8.80;99.90;;;;;;4971778;28;20034;-76
2024/03/25 09:01:21;;;;;;;10.00;3.63;;;8.70;99.90;;;;;;4970137;28;20433;-76
2024/03/25 09:03:48;;;;;;;17.35;4.47;;;8.80;99.90;;;;;;4969838;28;20422;-76
2024/03/25 09:06:13;;;;;;;13.23;3.42;;;8.80;99.90;;;;;;4971292;28;20378;-76
2024/03/25 09:11:25;;;;;;;14.90;3.28;;;8.70;99.90;;;;;;4956401;28;20406;-76
2024/03/25 09:13:50;;;;;;;14.95;4.60;;;8.80;99.90;;;;;;4981202;28;20020;-75
2024/03/25 09:16:16;;;;;;;12.45;3.55;;;9.00;99.90;;;;;;4970076;28;20042;-76
2024/03/25 09:18:42;;;;;;;10.48;2.90;;;9.20;99.90;;;;;;4954246;28;20034;-76
2024/03/25 09:21:08;;;;;;;16.77;4.00;;;9.50;99.90;;;;;;4954118;28;20195;-76
2024/03/25 09:23:34;;;;;;;19.70;3.95;;;9.80;99.90;;;;;;4953512;28;20023;-76
2024/03/25 09:25:59;;;;;;;14.48;3.20;;;9.80;99.90;;;;;;4954016;28;20027;-76
2024/03/25 09:28:25;;;;;;;11.35;3.10;;;10.00;99.90;;;;;;4966198;28;20091;-76
2024/03/25 09:30:50;;;;;;;16.55;3.83;;;10.30;99.90;;;;;;4989417;28;20030;-76
2024/03/25 09:33:19;;;;;;;15.70;3.60;;;10.70;99.90;;;;;;4977663;28;20038;-76
2024/03/25 09:35:45;;;;;;;9.70;2.80;;;10.70;99.90;;;;;;4955729;28;20019;-76
2024/03/25 09:38:13;;;;;;;13.02;3.38;;;10.90;99.90;;;;;;4962898;28;20122;-76
2024/03/25 09:40:40;;;;;;;18.05;3.05;;;11.00;99.90;;;;;;4969608;28;20028;-76
2024/03/25 09:43:17;;;;;;;15.27;2.97;;;10.90;99.90;;;;;;4954512;28;20027;-76
2024/03/25 09:45:48;;;;;;;7.30;3.05;;;11.00;99.90;;;;;;4960382;28;20026;-76
2024/03/25 09:48:15;;;;;;;;;;;11.20;99.90;;;;;;4972165;28;20078;-76
2024/03/25 09:50:42;;;;;;;14.52;4.00;;;10.90;99.90;;;;;;4953546;28;20001;-76
2024/03/25 09:53:11;;;;;;;13.05;3.45;;;10.50;99.90;;;;;;4953067;28;20422;-75
2024/03/25 09:55:37;;;;;;;9.63;3.10;;;10.00;99.90;;;;;;4953574;28;20066;-76
2024/03/25 09:58:05;;;;;;;11.32;3.20;;;9.60;99.90;;;;;;4954686;28;20023;-76
2024/03/25 10:00:34;;;;;;;11.98;3.00;;;9.30;99.90;;;;;;4962752;28;20038;-76
2024/03/25 10:02:59;;;;;;;17.60;5.60;;;9.10;99.90;;;;;;4953059;28;20024;-74
2024/03/25 10:05:28;;;;;;;13.50;3.47;;;9.00;99.90;;;;;;4954648;28;20027;-76
2024/03/25 10:07:56;;;;;;;9.80;3.50;;;8.70;99.90;;;;;;4969484;28;20023;-75
2024/03/25 10:10:22;;;;;;;16.38;3.88;;;8.80;99.90;;;;;;4971127;28;20031;-75
2024/03/25 10:12:48;;;;;;;17.13;5.38;;;8.90;99.90;;;;;;4965424;28;20027;-78
2024/03/25 10:15:17;;;;;;;10.48;3.38;;;9.10;99.90;;;;;;4963418;28;20054;-77
2024/03/25 10:17:49;;;;;;;12.10;3.42;;;9.40;99.90;;;;;;4965432;28;20493;-78
2024/03/25 10:20:15;;;;;;;17.27;3.00;;;9.70;99.90;;;;;;4973958;28;20031;-77
2024/03/25 10:22:41;;;;;;;10.65;3.47;;;9.80;99.90;;;;;;4986510;28;20024;-77
2024/03/25 10:25:08;;;;;;;10.88;3.03;;;9.90;99.90;;;;;;4980610;28;20023;-77
2024/03/25 10:27:36;;;;;;;10.77;2.90;;;10.20;99.90;;;;;;4956837;28;20047;-77
2024/03/25 10:30:05;;;;;;;7.80;2.47;;;10.70;99.90;;;;;;4971436;28;20050;-77
2024/03/25 10:32:31;;;;;;;8.88;2.92;;;10.90;99.90;;;;;;4990035;28;20027;-77
2024/03/25 10:35:00;;;;;;;8.20;2.97;;;11.00;99.90;;;;;;4991071;28;20031;-78
2024/03/25 10:37:27;;;;;;;11.02;2.63;;;10.80;99.90;;;;;;4967456;28;20023;-77
2024/03/25 10:40:00;;;;;;;9.30;2.92;;;10.90;99.90;;;;;;4968281;28;20063;-77
2024/03/25 10:42:27;;;;;;;8.65;2.13;;;11.00;99.90;;;;;;4973014;28;20058;-77
2024/03/25 10:44:56;;;;;;;5.22;2.03;;;10.70;99.90;;;;;;4973065;28;20023;-77
2024/03/25 10:47:27;;;;;;;8.35;2.53;;;10.60;99.90;;;;;;4972510;28;20034;-77
2024/03/25 10:50:08;;;;;;;13.23;2.65;;;10.40;99.90;;;;;;4973173;28;20027;-78
2024/03/25 10:52:46;;;;;;;10.45;3.08;;;10.40;99.90;;;;;;4971763;28;20082;-79
2024/03/25 10:55:12;;;;;;;5.82;2.03;;;10.30;99.90;;;;;;4965661;28;20055;-78
2024/03/25 10:57:41;;;;;;;6.90;2.08;;;10.20;99.90;;;;;;4988237;28;20037;-78
2024/03/25 11:00:08;;;;;;;8.80;2.50;;;10.30;99.50;;;;;;4964230;28;20035;-78
2024/03/25 11:02:34;;;;;;;7.68;2.00;;;10.40;99.70;;;;;;4964637;28;20019;-78
2024/03/25 11:05:00;;;;;;;5.90;1.98;;;10.40;98.30;;;;;;4973516;28;20023;-75
2024/03/25 11:07:38;;;;;;;6.13;2.42;;;10.50;97.40;;;;;;4972876;28;20034;-75
2024/03/25 11:10:07;;;;;;;8.77;2.40;;;10.40;99.00;;;;;;4972799;28;20110;-75
2024/03/25 11:12:35;;;;;;;5.50;1.98;;;10.40;98.90;;;;;;4961297;28;20046;-75
2024/03/25 11:15:03;;;;;;;8.65;2.95;;;10.50;97.50;;;;;;4953532;28;20273;-74
2024/03/25 11:17:29;;;;;;;5.20;2.05;;;10.50;97.40;;;;;;4967557;28;20039;-75
2024/03/25 11:19:54;;;;;;;9.90;2.65;;;10.40;97.60;;;;;;4953079;28;20031;-75
2024/03/25 11:22:25;;;;;;;7.28;2.25;;;10.30;98.20;;;;;;4967373;28;20058;-74
2024/03/25 11:24:52;;;;;;;9.00;2.33;;;10.30;98.80;;;;;;4975807;28;20442;-75
2024/03/25 11:27:22;;;;;;;5.85;1.67;;;10.20;99.90;;;;;;4961799;28;20105;-75
2024/03/25 11:29:48;;;;;;;8.98;2.25;;;10.20;99.20;;;;;;4970326;28;20035;-74
2024/03/25 11:32:15;;;;;;;6.97;2.20;;;10.10;98.90;;;;;;4970256;28;20031;-74
2024/03/25 11:34:50;;;;;;;12.07;2.13;;;10.10;99.20;;;;;;4972215;28;20053;-75
2024/03/25 11:37:19;;;;;;;11.07;2.58;;;10.10;98.80;;;;;;4970715;28;20478;-75
2024/03/25 11:39:47;;;;;;;8.38;2.30;;;10.20;98.90;;;;;;4972043;28;20072;-74
2024/03/25 11:42:13;;;;;;;13.20;2.78;;;10.40;99.20;;;;;;4972099;28;20031;-74
2024/03/25 11:44:41;;;;;;;8.93;2.35;;;11.30;99.60;;;;;;4970894;28;20462;-75
2024/03/25 11:47:09;;;;;;;8.98;2.40;;;12.20;97.30;;;;;;4972190;28;20030;-75
2024/03/25 11:49:38;;;;;;;7.85;2.28;;;12.60;95.00;;;;;;4971864;28;20019;-75
2024/03/25 11:52:07;;;;;;;11.52;2.42;;;12.70;95.40;;;;;;4978246;28;20031;-75
2024/03/25 11:54:32;;;;;;;11.30;2.60;;;12.70;95.90;;;;;;4971768;28;20033;-75
2024/03/25 11:56:58;;;;;;;6.05;1.98;;;12.60;94.30;;;;;;4970609;28;20117;-74
2024/03/25 11:59:26;;;;;;;8.05;1.92;;;12.40;92.50;;;;;;4986500;28;20027;-74
2024/03/25 12:01:55;;;;;;;11.20;2.33;;;12.00;92.50;;;;;;4986263;28;20027;-74
2024/03/25 12:04:23;;;;;;;7.97;2.30;;;11.80;93.30;;;;;;4985828;28;20081;-75
2024/03/25 12:06:48;;;;;;;13.63;2.78;;;11.40;93.60;;;;;;4967148;28;20023;-74
2024/03/25 12:12:09;;;;;;;11.80;3.10;;;10.80;95.30;;;;;;4966105;28;20037;-75
2024/03/25 12:14:35;;;;;;;8.95;2.40;;;10.50;95.70;;;;;;4971470;28;20030;-75
2024/03/25 12:17:05;;;;;;;10.10;2.05;;;10.50;96.00;;;;;;4971548;28;20027;-74
2024/03/25 12:19:30;;;;;;;14.00;2.90;;;10.40;96.00;;;;;;4986422;28;20054;-75
2024/03/25 12:22:00;;;;;;;9.07;2.42;;;10.40;96.10;;;;;;4971256;28;20039;-75
2024/03/25 12:24:27;;;;;;;11.40;3.15;;;10.40;96.20;;;;;;4969980;28;20022;-75
2024/03/25 12:26:52;;;;;;;8.35;2.50;;;10.50;95.10;;;;;;4966373;28;20100;-75
2024/03/25 12:29:21;;;;;;;6.15;2.22;;;10.70;95.80;;;;;;4983099;28;20027;-75
2024/03/25 12:32:01;;;;;;;6.57;2.10;;;10.80;96.00;;;;;;4969692;28;20030;-75
2024/03/25 12:34:30;;;;;;;7.27;2.37;;;10.80;95.80;;;;;;4954303;28;20094;-74
2024/03/25 12:37:04;;;;;;;11.10;2.60;;;10.80;95.30;;;;;;4952058;28;20451;-74
2024/03/25 12:39:30;;;;;;;8.45;2.20;;;10.80;95.20;;;;;;4950132;28;20030;-74
2024/03/25 12:41:57;;;;;;;10.27;2.67;;;10.90;95.20;;;;;;4951479;28;20402;-74
2024/03/25 12:44:32;;;;;;;7.65;2.33;;;10.70;95.10;;;;;;4950492;28;20028;-75
2024/03/25 12:46:58;;;;;;;8.07;2.35;;;10.60;95.60;;;;;;4950739;28;20074;-74
2024/03/25 12:49:27;;;;;;;12.00;2.55;;;10.50;96.10;;;;;;4950575;28;20115;-75
2024/03/25 12:51:53;;;;;;;8.68;2.47;;;10.40;97.00;;;;;;4949961;28;20053;-75
2024/03/25 12:54:21;;;;;;;8.93;2.03;;;10.40;97.20;;;;;;4950530;28;20047;-75
2024/03/25 12:56:49;;;;;;;8.85;2.40;;;10.30;97.80;;;;;;4985948;28;20027;-74
2024/03/25 12:59:15;;;;;;;13.68;2.42;;;10.40;97.20;;;;;;4971001;28;20023;-74